Terminal Aerodrome Forecast
Issued by NWS Louisville, KY

Home | Current Version | Previous Version | Text Only | Print | Product List | Glossary On
Versions: 1 2 3 4 5 6 7 8 9 10 11 12 13 14 15 16 17 18 19 20 21 22 23
000
FTUS43 KLMK 150500
TAFSDF
TAF
KSDF 150520Z 1506/1612 12004KT 6SM BR OVC020
     FM151600 14007KT P6SM SCT030 BKN200
     FM152200 16010KT P6SM -SHRA BKN030
     FM160900 19010KT P6SM BKN035=

USA.gov is the U.S. government's official web portal to all federal, state and local government web resources and services.